createdAt,value
2022-11-16T00:02:31.607Z,29.97
2022-11-16T00:05:27.959Z,30.13
2022-11-16T00:08:13.617Z,30.00
2022-11-16T00:11:25.195Z,29.13
2022-11-16T00:14:10.754Z,28.97
2022-11-16T00:16:56.994Z,28.17
2022-11-16T00:19:42.172Z,24.37
2022-11-16T00:22:30.292Z,35.47
2022-11-16T00:25:15.726Z,30.97
2022-11-16T00:28:00.979Z,25.80
2022-11-16T00:30:46.887Z,31.40
2022-11-16T00:33:32.184Z,21.90
2022-11-16T00:36:17.782Z,27.03
2022-11-16T00:39:05.794Z,25.80
2022-11-16T00:41:51.411Z,24.70
2022-11-16T00:44:39.122Z,25.73
2022-11-16T00:47:27.315Z,27.40
2022-11-16T00:50:20.107Z,23.80
2022-11-16T00:53:08.289Z,30.13
2022-11-16T00:55:53.414Z,28.37
2022-11-16T00:58:38.923Z,25.30
2022-11-16T01:01:24.695Z,21.93
2022-11-16T01:04:10.050Z,29.63
2022-11-16T01:06:55.636Z,24.40
2022-11-16T01:09:40.931Z,23.70
2022-11-16T01:12:26.388Z,22.23
2022-11-16T01:15:12.279Z,27.83
2022-11-16T01:17:57.599Z,22.83
2022-11-16T01:20:43.730Z,25.50
2022-11-16T01:23:28.834Z,22.70
2022-11-16T01:26:17.047Z,21.70
2022-11-16T01:29:02.992Z,26.57
2022-11-16T01:31:48.230Z,33.23
2022-11-16T01:34:35.874Z,28.50
2022-11-16T01:37:21.368Z,21.53
2022-11-16T01:40:08.004Z,25.17
2022-11-16T01:42:53.346Z,22.20
2022-11-16T01:45:42.294Z,23.10
2022-11-16T01:48:30.011Z,29.20
2022-11-16T01:51:18.464Z,22.87
2022-11-16T01:54:10.722Z,26.10
2022-11-16T01:56:57.779Z,28.23
2022-11-16T01:59:46.156Z,23.27
2022-11-16T02:02:31.887Z,23.80
2022-11-16T02:05:30.082Z,25.70
2022-11-16T02:08:53.126Z,28.30
2022-11-16T02:11:38.593Z,30.23
2022-11-16T02:14:56.675Z,30.30
2022-11-16T02:17:57.290Z,24.97
2022-11-16T02:20:58.303Z,30.30
2022-11-16T02:23:44.265Z,22.93
2022-11-16T02:27:06.944Z,23.77
2022-11-16T02:29:56.139Z,25.03
2022-11-16T02:32:52.413Z,27.87
2022-11-16T02:35:46.804Z,31.13
2022-11-16T02:38:36.489Z,24.87
2022-11-16T02:41:25.571Z,26.57
2022-11-16T02:44:28.224Z,24.93
2022-11-16T02:47:19.533Z,30.13
2022-11-16T02:50:10.615Z,22.27
2022-11-16T02:52:56.932Z,28.27
2022-11-16T02:55:43.051Z,26.90
2022-11-16T02:58:33.524Z,28.83
2022-11-16T03:01:34.309Z,28.57
2022-11-16T03:04:42.745Z,29.73
2022-11-16T03:07:35.718Z,29.00
2022-11-16T03:10:40.846Z,27.93
2022-11-16T03:13:33.391Z,22.80
2022-11-16T03:16:45.816Z,28.03
2022-11-16T03:19:43.413Z,26.97
2022-11-16T03:22:44.106Z,28.83
2022-11-16T03:25:38.333Z,26.03
2022-11-16T03:28:36.723Z,26.73
2022-11-16T03:31:31.210Z,29.90
2022-11-16T03:34:20.578Z,28.33
2022-11-16T03:37:09.673Z,23.80
2022-11-16T03:39:59.315Z,28.83
2022-11-16T03:42:49.534Z,28.37
2022-11-16T03:45:37.358Z,33.77
2022-11-16T03:48:23.249Z,31.10
2022-11-16T03:51:10.560Z,32.97
2022-11-16T03:53:57.968Z,26.23
2022-11-16T03:56:45.502Z,30.90
2022-11-16T03:59:30.929Z,32.57
2022-11-16T04:02:16.488Z,33.77
2022-11-16T04:05:20.508Z,33.43
2022-11-16T04:08:24.939Z,32.00
2022-11-16T04:11:37.814Z,35.13
2022-11-16T04:14:43.742Z,35.53
2022-11-16T04:17:47.951Z,39.63
2022-11-16T04:20:51.756Z,37.07
2022-11-16T04:23:55.986Z,36.27
2022-11-16T04:27:06.770Z,28.33
2022-11-16T04:29:53.249Z,32.37
2022-11-16T04:32:59.626Z,31.40
2022-11-16T04:36:03.466Z,35.63
2022-11-16T04:38:51.083Z,42.60
2022-11-16T04:41:56.083Z,35.23
2022-11-16T04:45:00.332Z,30.87
2022-11-16T04:47:49.572Z,37.67
2022-11-16T04:50:35.836Z,37.20
2022-11-16T04:53:22.622Z,41.00
2022-11-16T04:56:12.439Z,33.43
2022-11-16T04:59:00.129Z,41.40
2022-11-16T05:02:05.126Z,41.13
2022-11-16T05:04:52.784Z,42.30
2022-11-16T05:07:38.249Z,45.27
2022-11-16T05:10:23.419Z,39.93
2022-11-16T05:13:09.476Z,50.70
2022-11-16T05:15:54.985Z,50.23
2022-11-16T05:18:40.433Z,40.17
2022-11-16T05:21:26.421Z,43.70
2022-11-16T05:24:30.361Z,41.63
2022-11-16T05:27:17.786Z,42.03
2022-11-16T05:30:05.675Z,59.30
2022-11-16T05:32:51.209Z,52.97
2022-11-16T05:35:39.296Z,42.20
2022-11-16T05:38:24.805Z,44.60
2022-11-16T05:41:10.412Z,47.97
2022-11-16T05:43:56.108Z,42.40
2022-11-16T05:46:42.083Z,39.40
2022-11-16T05:49:27.575Z,49.23
2022-11-16T05:52:12.879Z,44.80
2022-11-16T05:54:58.383Z,49.13
2022-11-16T05:57:44.029Z,51.10
2022-11-16T06:00:29.587Z,53.67
2022-11-16T06:03:17.170Z,48.80
2022-11-16T06:06:04.031Z,56.30
2022-11-16T06:08:51.768Z,49.47
2022-11-16T06:11:38.202Z,49.50
2022-11-16T06:14:23.810Z,48.40
2022-11-16T06:17:14.632Z,49.77
2022-11-16T06:20:00.191Z,46.10
2022-11-16T06:22:48.778Z,46.47
2022-11-16T06:25:34.106Z,44.63
2022-11-16T06:28:19.369Z,51.57
2022-11-16T06:31:05.005Z,57.47
2022-11-16T06:33:50.139Z,48.93
2022-11-16T06:36:36.155Z,60.30
2022-11-16T06:39:21.642Z,49.60
2022-11-16T06:42:09.871Z,46.03
2022-11-16T06:44:55.150Z,51.13
2022-11-16T06:47:40.690Z,66.63
2022-11-16T06:50:26.519Z,53.07
2022-11-16T06:53:11.747Z,46.67
2022-11-16T06:56:05.158Z,43.70
2022-11-16T06:58:53.289Z,55.03
2022-11-16T07:01:42.951Z,49.40
2022-11-16T07:04:28.411Z,45.47
2022-11-16T07:07:15.287Z,49.73
2022-11-16T07:10:00.827Z,46.20
2022-11-16T07:12:46.209Z,51.80
2022-11-16T07:15:32.128Z,52.67
2022-11-16T07:18:19.828Z,39.97
2022-11-16T07:21:10.604Z,47.17
2022-11-16T07:23:57.100Z,46.77
2022-11-16T07:26:42.168Z,49.10
2022-11-16T07:29:28.593Z,47.63
2022-11-16T07:32:14.307Z,44.17
2022-11-16T07:35:02.353Z,56.53
2022-11-16T07:37:47.829Z,43.00
2022-11-16T07:40:33.466Z,48.63
2022-11-16T07:43:19.085Z,49.90
2022-11-16T07:49:19.444Z,40.80
2022-11-16T07:52:05.108Z,48.47
2022-11-16T07:54:50.288Z,44.47
2022-11-16T07:57:35.803Z,48.50
2022-11-16T08:00:21.205Z,56.97
2022-11-16T08:03:06.643Z,50.47
2022-11-16T08:06:02.612Z,62.40
2022-11-16T08:08:50.390Z,46.73
2022-11-16T08:11:38.361Z,44.73
2022-11-16T08:14:23.620Z,47.57
2022-11-16T08:17:08.815Z,60.23
2022-11-16T08:19:54.605Z,46.93
2022-11-16T08:22:40.166Z,48.80
2022-11-16T08:25:28.588Z,42.63
2022-11-16T08:28:17.222Z,41.40
2022-11-16T08:31:14.653Z,40.97
2022-11-16T08:34:01.053Z,37.60
2022-11-16T08:36:49.010Z,47.53
2022-11-16T08:39:37.335Z,40.53
2022-11-16T08:42:23.016Z,44.70
2022-11-16T08:45:09.543Z,35.73
2022-11-16T08:48:03.562Z,43.00
2022-11-16T08:51:15.794Z,37.03
2022-11-16T08:53:59.296Z,47.23
2022-11-16T08:56:44.742Z,46.93
2022-11-16T08:59:33.802Z,35.83
2022-11-16T09:02:25.311Z,34.40
2022-11-16T09:05:12.085Z,33.60
2022-11-16T09:07:57.518Z,27.40
2022-11-16T09:10:43.388Z,32.07
2022-11-16T09:13:28.832Z,36.67
2022-11-16T09:16:17.841Z,29.27
2022-11-16T09:19:05.359Z,31.93
2022-11-16T09:21:53.248Z,31.53
2022-11-16T09:24:38.542Z,30.07
2022-11-16T09:27:26.981Z,27.20
2022-11-16T09:30:12.829Z,23.70
2022-11-16T09:32:59.061Z,21.17
2022-11-16T09:35:44.614Z,18.20
2022-11-16T09:42:18.429Z,24.47
2022-11-16T09:45:20.731Z,16.57
2022-11-16T09:48:12.487Z,15.67
2022-11-16T09:51:01.885Z,16.83
2022-11-16T09:54:06.029Z,18.63
2022-11-16T09:57:00.729Z,19.53
2022-11-16T09:59:55.086Z,14.03
2022-11-16T10:02:50.376Z,17.23
2022-11-16T10:05:51.812Z,15.43
2022-11-16T10:08:49.020Z,19.77
2022-11-16T10:11:46.941Z,19.77
2022-11-16T10:14:49.654Z,15.40
2022-11-16T10:17:56.503Z,19.63
2022-11-16T10:21:27.132Z,13.90
2022-11-16T10:24:55.825Z,19.47
2022-11-16T10:27:52.537Z,22.20
2022-11-16T10:31:06.390Z,18.80
2022-11-16T10:33:57.176Z,14.43
2022-11-16T10:36:43.180Z,15.97
2022-11-16T10:39:28.988Z,18.60
2022-11-16T10:42:22.986Z,18.17
2022-11-16T10:45:30.238Z,18.27
2022-11-16T10:48:31.471Z,22.40
2022-11-16T10:51:17.657Z,16.43
2022-11-16T10:54:11.330Z,26.30
2022-11-16T10:57:05.805Z,30.07
2022-11-16T10:59:55.590Z,26.10
2022-11-16T11:02:49.433Z,19.70
2022-11-16T11:05:46.218Z,24.53
2022-11-16T11:08:31.855Z,21.90
2022-11-16T11:11:41.900Z,20.37
2022-11-16T11:14:27.505Z,18.47
2022-11-16T11:17:17.733Z,22.00
2022-11-16T11:20:05.577Z,25.67
2022-11-16T11:23:02.462Z,21.50
2022-11-16T11:25:59.480Z,21.23
2022-11-16T11:28:50.866Z,24.23
2022-11-16T11:31:46.215Z,25.73
2022-11-16T11:34:40.398Z,25.27
2022-11-16T11:37:31.848Z,22.43
2022-11-16T11:40:25.127Z,24.90
2022-11-16T11:43:23.285Z,29.53
2022-11-16T11:46:56.074Z,23.37
2022-11-16T11:49:42.031Z,24.93
2022-11-16T11:52:47.626Z,23.50
2022-11-16T11:55:33.572Z,19.43
2022-11-16T11:58:19.794Z,24.03
2022-11-16T12:01:33.714Z,34.20
2022-11-16T12:04:24.689Z,21.20
2022-11-16T12:07:12.585Z,23.03
2022-11-16T12:10:25.984Z,24.40
2022-11-16T12:13:56.214Z,23.20
2022-11-16T12:16:50.622Z,24.80
2022-11-16T12:20:00.654Z,21.40
2022-11-16T12:23:04.721Z,22.47
2022-11-16T12:26:21.719Z,26.13
2022-11-16T12:29:29.573Z,23.47
2022-11-16T12:32:51.943Z,22.00
2022-11-16T12:35:58.615Z,19.93
2022-11-16T12:39:09.869Z,21.70
2022-11-16T12:42:21.570Z,22.20
2022-11-16T12:45:20.463Z,22.73
2022-11-16T12:48:27.398Z,21.77
2022-11-16T12:51:15.526Z,20.57
2022-11-16T12:54:13.446Z,20.27
2022-11-16T12:57:05.375Z,20.07
2022-11-16T13:00:11.336Z,20.77
2022-11-16T13:03:35.840Z,17.90
2022-11-16T13:06:29.252Z,22.00
2022-11-16T13:09:20.017Z,18.10
2022-11-16T13:12:14.258Z,19.93
2022-11-16T13:15:03.074Z,19.27
2022-11-16T13:17:59.109Z,17.70
2022-11-16T13:21:13.762Z,20.13
2022-11-16T13:24:20.935Z,18.67
2022-11-16T13:27:23.209Z,15.50
2022-11-16T13:30:26.211Z,18.20
2022-11-16T13:33:30.397Z,15.03
2022-11-16T13:36:39.287Z,17.37
2022-11-16T13:39:59.212Z,13.13
2022-11-16T13:42:57.726Z,15.00
2022-11-16T13:46:00.815Z,15.10
2022-11-16T13:48:47.541Z,16.77
2022-11-16T13:51:32.843Z,13.00
2022-11-16T13:54:45.312Z,13.87
2022-11-16T13:57:38.200Z,12.53
2022-11-16T14:00:30.971Z,13.40
2022-11-16T14:03:16.165Z,16.47
2022-11-16T14:06:04.233Z,13.57
2022-11-16T14:08:53.505Z,13.67
2022-11-16T14:11:42.468Z,14.20
2022-11-16T14:15:03.749Z,14.50
2022-11-16T14:17:57.191Z,17.10
2022-11-16T14:21:21.854Z,12.90
2022-11-16T14:24:35.435Z,16.00
2022-11-16T14:27:40.885Z,11.70
2022-11-16T14:30:46.949Z,11.13
2022-11-16T14:33:36.772Z,11.20
2022-11-16T14:36:44.324Z,14.13
2022-11-16T14:39:41.141Z,14.17
2022-11-16T14:42:38.169Z,12.83
2022-11-16T14:45:37.100Z,13.20
2022-11-16T14:48:28.601Z,10.90
2022-11-16T14:51:35.442Z,13.93
2022-11-16T14:54:41.522Z,15.63
2022-11-16T14:57:27.067Z,14.33
2022-11-16T15:00:22.327Z,15.60
2022-11-16T15:03:14.938Z,18.17
2022-11-16T15:06:01.895Z,16.10
2022-11-16T15:09:02.011Z,11.43
2022-11-16T15:12:08.061Z,15.47
2022-11-16T15:14:57.463Z,10.07
2022-11-16T15:18:06.003Z,10.90
2022-11-16T15:20:52.562Z,11.17
2022-11-16T15:24:02.036Z,8.47
2022-11-16T15:26:55.952Z,12.63
2022-11-16T15:29:41.320Z,10.97
2022-11-16T15:32:29.084Z,8.77
2022-11-16T15:35:22.151Z,17.37
2022-11-16T15:38:27.365Z,10.53
2022-11-16T15:41:17.823Z,10.53
2022-11-16T15:44:15.179Z,9.90
2022-11-16T15:47:03.860Z,11.43
2022-11-16T15:49:52.868Z,9.23
2022-11-16T15:52:55.543Z,8.43
2022-11-16T15:55:42.366Z,6.23
2022-11-16T15:58:30.510Z,7.30
2022-11-16T16:01:17.973Z,10.07
2022-11-16T16:04:07.601Z,7.87
2022-11-16T16:06:58.649Z,8.33
2022-11-16T16:09:44.211Z,8.10
2022-11-16T16:12:29.647Z,6.97
2022-11-16T16:15:23.894Z,8.10
2022-11-16T16:18:37.091Z,6.43
2022-11-16T16:21:23.035Z,7.80
2022-11-16T16:24:11.643Z,9.33
2022-11-16T16:26:57.648Z,9.00
2022-11-16T16:29:45.243Z,11.00
2022-11-16T16:32:33.679Z,8.70
2022-11-16T16:35:21.810Z,11.00
2022-11-16T16:38:13.444Z,13.27
2022-11-16T16:41:05.913Z,10.73
2022-11-16T16:43:51.663Z,10.50
2022-11-16T16:46:37.368Z,8.70
2022-11-16T16:49:22.906Z,8.57
2022-11-16T16:52:11.295Z,8.93
2022-11-16T16:54:56.430Z,7.30
2022-11-16T16:57:43.749Z,8.43
2022-11-16T17:00:29.130Z,8.80
2022-11-16T17:03:17.190Z,6.40
2022-11-16T17:06:02.965Z,9.27
2022-11-16T17:08:48.549Z,8.87
2022-11-16T17:11:34.057Z,10.63
2022-11-16T17:14:24.517Z,9.17
2022-11-16T17:17:10.271Z,15.03
2022-11-16T17:19:56.303Z,11.37
2022-11-16T17:22:42.010Z,10.03
2022-11-16T17:25:27.715Z,7.80
2022-11-16T17:28:13.083Z,8.80
2022-11-16T17:31:10.744Z,7.33
2022-11-16T17:33:57.731Z,8.73
2022-11-16T17:36:46.284Z,8.43
2022-11-16T17:39:31.851Z,8.77
2022-11-16T17:42:19.718Z,7.80
2022-11-16T17:45:06.157Z,7.37
2022-11-16T17:47:53.851Z,9.40
2022-11-16T17:50:39.347Z,7.50
2022-11-16T17:53:31.256Z,9.43
2022-11-16T17:56:20.801Z,5.70
2022-11-16T17:59:08.770Z,7.70
2022-11-16T18:01:54.260Z,7.13
2022-11-16T18:04:39.741Z,7.70
2022-11-16T18:07:25.258Z,8.73
2022-11-16T18:10:18.911Z,6.20
2022-11-16T18:13:05.855Z,9.40
2022-11-16T18:16:03.453Z,9.60
2022-11-16T18:18:56.512Z,5.77
2022-11-16T18:21:42.113Z,4.33
2022-11-16T18:24:30.863Z,4.70
2022-11-16T18:27:16.043Z,5.33
2022-11-16T18:30:02.112Z,4.90
2022-11-16T18:32:48.495Z,5.23
2022-11-16T18:35:36.793Z,4.40
2022-11-16T18:38:22.121Z,4.40
2022-11-16T18:41:14.382Z,5.43
2022-11-16T18:44:03.211Z,7.30
2022-11-16T18:46:48.790Z,4.30
2022-11-16T18:49:34.407Z,4.40
2022-11-16T18:52:19.731Z,4.13
2022-11-16T18:55:09.209Z,7.90
2022-11-16T18:57:54.514Z,6.50
2022-11-16T19:00:42.274Z,4.30
2022-11-16T19:03:27.544Z,4.20
2022-11-16T19:06:14.968Z,5.40
2022-11-16T19:09:04.397Z,5.23
2022-11-16T19:11:52.629Z,4.17
2022-11-16T19:14:42.823Z,4.23
2022-11-16T19:17:28.069Z,3.90
2022-11-16T19:20:16.092Z,3.97
2022-11-16T19:23:02.081Z,4.00
2022-11-16T19:25:47.971Z,3.57
2022-11-16T19:28:40.037Z,4.67
2022-11-16T19:31:28.624Z,6.13
2022-11-16T19:34:17.033Z,14.83
2022-11-16T19:37:02.400Z,4.30
2022-11-16T19:39:50.469Z,6.90
2022-11-16T19:42:35.793Z,4.50
2022-11-16T19:45:21.256Z,4.83
2022-11-16T19:48:11.557Z,4.77
2022-11-16T19:51:03.030Z,3.63
2022-11-16T19:53:48.546Z,4.27
2022-11-16T19:56:34.241Z,5.47
2022-11-16T19:59:19.708Z,4.40
2022-11-16T20:02:09.502Z,3.53
2022-11-16T20:04:55.284Z,4.73
2022-11-16T20:07:40.690Z,4.40
2022-11-16T20:10:31.730Z,4.40
2022-11-16T20:13:18.238Z,3.93
2022-11-16T20:16:04.256Z,4.37
2022-11-16T20:18:51.365Z,3.50
2022-11-16T20:21:42.749Z,3.83
2022-11-16T20:24:28.153Z,4.63
2022-11-16T20:27:14.253Z,4.73
2022-11-16T20:30:07.952Z,4.00
2022-11-16T20:32:54.969Z,4.50
2022-11-16T20:35:43.885Z,4.67
2022-11-16T20:38:29.295Z,4.27
2022-11-16T20:41:17.352Z,5.20
2022-11-16T20:44:03.462Z,5.53
2022-11-16T20:46:49.177Z,7.10
2022-11-16T20:49:35.381Z,5.50
2022-11-16T20:52:21.512Z,5.33
2022-11-16T20:55:07.757Z,5.17
2022-11-16T20:57:53.502Z,5.50
2022-11-16T21:00:39.041Z,4.53
2022-11-16T21:03:24.876Z,5.20
2022-11-16T21:06:11.781Z,4.73
2022-11-16T21:08:57.843Z,6.83
2022-11-16T21:12:06.705Z,4.70
2022-11-16T21:14:52.037Z,6.00
2022-11-16T21:17:37.520Z,4.50
2022-11-16T21:20:27.766Z,4.57
2022-11-16T21:23:14.981Z,4.57
2022-11-16T21:26:08.268Z,4.70
2022-11-16T21:28:54.286Z,3.97
2022-11-16T21:31:39.938Z,4.60
2022-11-16T21:34:32.702Z,8.17
2022-11-16T21:37:21.583Z,7.00
2022-11-16T21:40:08.552Z,4.93
2022-11-16T21:42:54.657Z,6.07
2022-11-16T21:45:40.438Z,4.27
2022-11-16T21:48:25.850Z,4.87
2022-11-16T21:51:16.100Z,5.40
2022-11-16T21:54:02.675Z,4.00
2022-11-16T21:56:48.021Z,4.73
2022-11-16T21:59:33.590Z,5.27
2022-11-16T22:02:19.137Z,5.53
2022-11-16T22:05:26.040Z,5.70
2022-11-16T22:08:13.645Z,4.10
2022-11-16T22:11:03.599Z,4.50
2022-11-16T22:13:52.196Z,5.40
2022-11-16T22:16:37.706Z,6.50
2022-11-16T22:19:23.012Z,4.07
2022-11-16T22:22:08.517Z,4.37
2022-11-16T22:24:53.980Z,4.30
2022-11-16T22:27:58.704Z,4.10
2022-11-16T22:30:51.765Z,4.43
2022-11-16T22:33:40.384Z,4.43
2022-11-16T22:36:26.071Z,10.60
2022-11-16T22:39:12.084Z,5.10
2022-11-16T22:41:57.626Z,3.80
2022-11-16T22:44:42.777Z,4.73
2022-11-16T22:47:28.377Z,4.00
2022-11-16T22:50:14.030Z,4.33
2022-11-16T22:52:59.287Z,5.43
2022-11-16T22:55:44.702Z,4.97
2022-11-16T22:58:32.808Z,4.57
2022-11-16T23:01:22.118Z,5.83
2022-11-16T23:04:10.712Z,12.10
2022-11-16T23:06:56.314Z,4.93
2022-11-16T23:09:42.053Z,4.57
2022-11-16T23:12:45.938Z,6.80
2022-11-16T23:15:49.229Z,4.70
2022-11-16T23:18:34.420Z,4.73
2022-11-16T23:21:38.034Z,5.10
2022-11-16T23:24:42.389Z,6.20
2022-11-16T23:27:36.915Z,5.83
2022-11-16T23:30:23.113Z,6.13
2022-11-16T23:33:08.858Z,5.63
2022-11-16T23:35:54.356Z,10.10
2022-11-16T23:38:40.693Z,4.87
2022-11-16T23:41:44.800Z,5.27
2022-11-16T23:44:32.583Z,5.33
2022-11-16T23:47:17.887Z,5.17
2022-11-16T23:50:03.662Z,6.27
2022-11-16T23:52:51.217Z,4.97
2022-11-16T23:55:40.872Z,5.50
2022-11-16T23:58:26.114Z,7.50
